createdAt,value
2023-04-02T00:01:04.235Z,97825.97
2023-04-02T00:03:44.626Z,97827.69
2023-04-02T00:06:32.937Z,97835.22
2023-04-02T00:09:24.874Z,97829.63
2023-04-02T00:11:54.784Z,97836.00
2023-04-02T00:14:31.809Z,97834.19
2023-04-02T00:17:02.342Z,97833.31
2023-04-02T00:19:57.014Z,97840.03
2023-04-02T00:22:34.262Z,97831.00
2023-04-02T00:25:11.228Z,97833.88
2023-04-02T00:27:39.380Z,97839.69
2023-04-02T00:30:08.776Z,97842.09
2023-04-02T00:32:37.355Z,97842.19
2023-04-02T00:35:13.274Z,97852.94
2023-04-02T00:37:42.270Z,97854.00
2023-04-02T00:40:31.156Z,97851.38
2023-04-02T00:43:00.310Z,97856.13
2023-04-02T00:45:33.305Z,97855.94
2023-04-02T00:48:20.187Z,97856.97
2023-04-02T00:50:49.243Z,97845.34
2023-04-02T00:53:29.279Z,97850.59
2023-04-02T00:56:01.980Z,97849.00
2023-04-02T00:58:34.465Z,97848.94
2023-04-02T01:01:03.331Z,97853.44
2023-04-02T01:03:38.977Z,97852.72
2023-04-02T01:06:11.880Z,97843.97
2023-04-02T01:09:00.087Z,97842.94
2023-04-02T01:11:34.024Z,97845.09
2023-04-02T01:14:26.791Z,97844.31
2023-04-02T01:17:00.532Z,97838.72
2023-04-02T01:19:50.453Z,97846.72
2023-04-02T01:23:05.954Z,97848.09
2023-04-02T01:25:41.783Z,97842.50
2023-04-02T01:28:27.046Z,97848.00
2023-04-02T01:30:57.807Z,97852.56
2023-04-02T01:33:31.336Z,97845.72
2023-04-02T01:36:19.164Z,97848.38
2023-04-02T01:39:10.727Z,97851.91
2023-04-02T01:42:10.088Z,97849.41
2023-04-02T01:44:44.459Z,97851.34
2023-04-02T01:47:15.445Z,97859.31
2023-04-02T01:49:44.363Z,97856.38
2023-04-02T01:52:17.989Z,97864.00
2023-04-02T01:54:47.756Z,97859.41
2023-04-02T01:57:16.592Z,97846.53
2023-04-02T01:59:45.914Z,97862.28
2023-04-02T02:02:14.236Z,97864.44
2023-04-02T02:04:44.564Z,97863.91
2023-04-02T02:07:19.313Z,97870.72
2023-04-02T02:09:51.556Z,97875.84
2023-04-02T02:12:19.693Z,97875.19
2023-04-02T02:14:49.959Z,97874.72
2023-04-02T02:17:29.645Z,97877.00
2023-04-02T02:20:01.568Z,97872.22
2023-04-02T02:22:34.134Z,97880.97
2023-04-02T02:25:07.895Z,97875.84
2023-04-02T02:27:54.424Z,97876.22
2023-04-02T02:30:51.027Z,97886.38
2023-04-02T02:33:51.780Z,97874.84
2023-04-02T02:36:52.774Z,97898.13
2023-04-02T02:39:36.426Z,97884.75
2023-04-02T02:42:13.477Z,97888.06
2023-04-02T02:44:49.266Z,97892.97
2023-04-02T02:47:29.612Z,97891.16
2023-04-02T02:50:22.154Z,97892.41
2023-04-02T02:52:56.176Z,97903.16
2023-04-02T02:55:36.951Z,97902.44
2023-04-02T02:58:34.138Z,97899.31
2023-04-02T03:01:12.817Z,97904.72
2023-04-02T03:03:44.914Z,97922.16
2023-04-02T03:06:16.885Z,97917.16
2023-04-02T03:08:56.429Z,97907.59
2023-04-02T03:12:08.793Z,97914.34
2023-04-02T03:14:49.062Z,97916.84
2023-04-02T03:17:31.463Z,97912.97
2023-04-02T03:20:12.875Z,97918.78
2023-04-02T03:22:52.848Z,97924.03
2023-04-02T03:25:44.313Z,97927.09
2023-04-02T03:28:23.905Z,97934.78
2023-04-02T03:30:59.637Z,97940.25
2023-04-02T03:33:39.144Z,97932.03
2023-04-02T03:36:28.837Z,97940.94
2023-04-02T03:39:16.575Z,97940.13
2023-04-02T03:41:49.274Z,97934.53
2023-04-02T03:44:25.129Z,97934.19
2023-04-02T03:46:58.462Z,97938.53
2023-04-02T03:50:02.795Z,97944.69
2023-04-02T03:52:31.420Z,97937.06
2023-04-02T03:55:11.587Z,97943.44
2023-04-02T03:58:00.891Z,97943.56
2023-04-02T04:00:39.218Z,97946.31
2023-04-02T04:03:41.029Z,97946.63
2023-04-02T04:06:27.673Z,97947.88
2023-04-02T04:09:07.362Z,97959.88
2023-04-02T04:11:45.191Z,97950.31
2023-04-02T04:14:19.617Z,97956.09
2023-04-02T04:17:04.550Z,97956.47
2023-04-02T04:19:34.744Z,97961.38
2023-04-02T04:22:22.017Z,97968.56
2023-04-02T04:24:53.397Z,97963.53
2023-04-02T04:27:33.612Z,97971.75
2023-04-02T04:30:23.098Z,97978.84
2023-04-02T04:32:58.385Z,97978.16
2023-04-02T04:35:48.323Z,97977.94
2023-04-02T04:38:33.051Z,97978.50
2023-04-02T04:41:12.234Z,97976.78
2023-04-02T04:43:59.081Z,97990.25
2023-04-02T04:46:40.380Z,97987.97
2023-04-02T04:49:31.301Z,98000.75
2023-04-02T04:52:27.238Z,97998.81
2023-04-02T04:54:55.853Z,97998.00
2023-04-02T04:57:36.699Z,98002.59
2023-04-02T05:00:20.712Z,97998.13
2023-04-02T05:02:57.786Z,98004.16
2023-04-02T05:05:31.347Z,97990.94
2023-04-02T05:08:14.090Z,97994.25
2023-04-02T05:10:47.975Z,98007.94
2023-04-02T05:13:33.417Z,98008.16
2023-04-02T05:16:22.563Z,98010.09
2023-04-02T05:19:12.700Z,98006.91
2023-04-02T05:22:14.495Z,98002.59
2023-04-02T05:25:20.344Z,98010.34
2023-04-02T05:28:02.239Z,98014.22
2023-04-02T05:30:33.145Z,98016.06
2023-04-02T05:33:07.991Z,98015.13
2023-04-02T05:35:42.957Z,98026.00
2023-04-02T05:38:21.903Z,98027.13
2023-04-02T05:41:15.429Z,98027.13
2023-04-02T05:43:47.992Z,98033.66
2023-04-02T05:46:28.594Z,98032.03
2023-04-02T05:48:59.672Z,98037.50
2023-04-02T05:51:43.849Z,98029.19
2023-04-02T05:54:39.680Z,98040.03
2023-04-02T05:57:15.389Z,98048.50
2023-04-02T05:59:58.176Z,98051.09
2023-04-02T06:02:37.096Z,98056.94
2023-04-02T06:05:06.381Z,98055.91
2023-04-02T06:08:08.663Z,98063.31
2023-04-02T06:11:15.613Z,98062.19
2023-04-02T06:13:44.270Z,98069.63
2023-04-02T06:16:16.885Z,98066.75
2023-04-02T06:18:45.538Z,98071.22
2023-04-02T06:21:16.976Z,98068.00
2023-04-02T06:23:56.651Z,98072.00
2023-04-02T06:26:40.431Z,98083.09
2023-04-02T06:29:39.756Z,98085.72
2023-04-02T06:32:12.413Z,98077.38
2023-04-02T06:34:44.996Z,98080.34
2023-04-02T06:37:34.596Z,98084.56
2023-04-02T06:40:48.869Z,98090.50
2023-04-02T06:43:49.139Z,98096.09
2023-04-02T06:46:31.613Z,98102.97
2023-04-02T06:49:24.342Z,98098.97
2023-04-02T06:52:00.913Z,98092.22
2023-04-02T06:54:31.558Z,98102.41
2023-04-02T06:57:07.710Z,98107.44
2023-04-02T06:59:41.870Z,98115.31
2023-04-02T07:02:38.187Z,98110.41
2023-04-02T07:05:10.939Z,98111.44
2023-04-02T07:07:43.432Z,98121.69
2023-04-02T07:10:13.390Z,98117.59
2023-04-02T07:12:41.482Z,98121.69
2023-04-02T07:15:16.103Z,98118.97
2023-04-02T07:17:44.337Z,98123.41
2023-04-02T07:20:27.489Z,98126.63
2023-04-02T07:22:57.075Z,98127.31
2023-04-02T07:25:26.737Z,98130.50
2023-04-02T07:27:55.058Z,98134.84
2023-04-02T07:30:23.128Z,98125.94
2023-04-02T07:32:51.241Z,98134.75
2023-04-02T07:35:19.424Z,98138.50
2023-04-02T07:37:47.435Z,98139.44
2023-04-02T07:40:20.647Z,98134.97
2023-04-02T07:42:49.187Z,98129.94
2023-04-02T07:45:18.034Z,98158.50
2023-04-02T07:47:46.194Z,98158.41
2023-04-02T07:50:14.241Z,98157.69
2023-04-02T07:52:43.561Z,98162.63
2023-04-02T07:55:12.860Z,98166.72
2023-04-02T07:57:48.687Z,98162.38
2023-04-02T08:00:17.118Z,98161.47
2023-04-02T08:02:45.640Z,98173.34
2023-04-02T08:05:13.790Z,98185.88
2023-04-02T08:07:42.163Z,98188.06
2023-04-02T08:10:12.459Z,98183.03
2023-04-02T08:12:40.558Z,98186.69
2023-04-02T08:15:10.024Z,98186.25
2023-04-02T08:17:37.911Z,98194.72
2023-04-02T08:20:06.689Z,98197.47
2023-04-02T08:22:34.656Z,98203.41
2023-04-02T08:25:02.514Z,98196.78
2023-04-02T08:27:30.352Z,98205.81
2023-04-02T08:29:58.354Z,98202.28
2023-04-02T08:32:29.043Z,98202.72
2023-04-02T08:34:57.395Z,98198.50
2023-04-02T08:37:25.524Z,98211.31
2023-04-02T08:39:53.360Z,98209.44
2023-04-02T08:42:36.610Z,98217.34
2023-04-02T08:45:25.029Z,98213.03
2023-04-02T08:48:10.500Z,98219.38
2023-04-02T08:50:41.506Z,98224.16
2023-04-02T08:53:18.509Z,98229.00
2023-04-02T08:56:05.321Z,98226.59
2023-04-02T08:58:41.479Z,98225.09
2023-04-02T09:01:37.257Z,98242.25
2023-04-02T09:04:14.380Z,98232.41
2023-04-02T09:06:44.074Z,98237.63
2023-04-02T09:09:14.750Z,98240.97
2023-04-02T09:12:04.099Z,98236.19
2023-04-02T09:14:55.169Z,98230.50
2023-04-02T09:17:25.808Z,98242.09
2023-04-02T09:19:53.647Z,98235.25
2023-04-02T09:22:27.836Z,98247.47
2023-04-02T09:24:58.609Z,98242.28
2023-04-02T09:27:30.051Z,98259.00
2023-04-02T09:30:03.742Z,98255.78
2023-04-02T09:32:52.679Z,98255.78
2023-04-02T09:35:26.581Z,98257.72
2023-04-02T09:38:18.478Z,98261.13
2023-04-02T09:40:55.640Z,98261.81
2023-04-02T09:43:26.292Z,98279.84
2023-04-02T09:46:20.027Z,98276.66
2023-04-02T09:48:58.551Z,98271.84
2023-04-02T09:51:30.017Z,98278.13
2023-04-02T09:54:15.958Z,98271.53
2023-04-02T09:57:01.928Z,98271.53
2023-04-02T09:59:29.936Z,98284.69
2023-04-02T10:02:01.496Z,98275.06
2023-04-02T10:04:45.330Z,98278.75
2023-04-02T10:07:37.811Z,98281.19
2023-04-02T10:10:27.127Z,98308.44
2023-04-02T10:13:06.696Z,98273.16
2023-04-02T10:16:13.123Z,98291.53
2023-04-02T10:18:55.926Z,98289.97
2023-04-02T10:21:27.336Z,98290.22
2023-04-02T10:23:57.424Z,98304.16
2023-04-02T10:26:34.405Z,98285.88
2023-04-02T10:29:24.567Z,98288.31
2023-04-02T10:32:11.754Z,98290.13
2023-04-02T10:34:41.163Z,98288.88
2023-04-02T10:37:37.968Z,98282.38
2023-04-02T10:40:14.538Z,98286.38
2023-04-02T10:43:13.535Z,98292.22
2023-04-02T10:45:47.467Z,98290.69
2023-04-02T10:48:27.592Z,98291.97
2023-04-02T10:50:59.089Z,98295.44
2023-04-02T10:53:45.647Z,98293.38
2023-04-02T10:56:14.612Z,98299.22
2023-04-02T10:58:56.867Z,98297.28
2023-04-02T11:01:31.528Z,98294.66
2023-04-02T11:04:03.599Z,98299.47
2023-04-02T11:06:42.030Z,98310.53
2023-04-02T11:09:25.142Z,98305.06
2023-04-02T11:11:57.644Z,98309.53
2023-04-02T11:14:28.191Z,98309.06
2023-04-02T11:16:59.119Z,98304.28
2023-04-02T11:19:32.412Z,98317.41
2023-04-02T11:22:16.707Z,98315.81
2023-04-02T11:24:53.500Z,98317.66
2023-04-02T11:27:28.329Z,98326.41
2023-04-02T11:30:05.565Z,98320.56
2023-04-02T11:32:37.249Z,98321.97
2023-04-02T11:35:32.160Z,98339.56
2023-04-02T11:38:23.746Z,98332.44
2023-04-02T11:40:58.641Z,98344.22
2023-04-02T11:43:32.657Z,98340.34
2023-04-02T11:46:29.230Z,98346.06
2023-04-02T11:49:36.231Z,98350.38
2023-04-02T11:52:18.885Z,98369.16
2023-04-02T11:55:15.527Z,98346.50
2023-04-02T11:58:02.144Z,98361.69
2023-04-02T12:00:51.188Z,98354.66
2023-04-02T12:03:56.902Z,98362.63
2023-04-02T12:06:57.208Z,98375.53
2023-04-02T12:09:28.770Z,98368.50
2023-04-02T12:12:24.003Z,98371.78
2023-04-02T12:14:57.241Z,98381.56
2023-04-02T12:17:36.633Z,98376.03
2023-04-02T12:20:20.561Z,98386.16
2023-04-02T12:22:54.508Z,98381.88
2023-04-02T12:25:34.238Z,98387.63
2023-04-02T12:28:14.553Z,98388.03
2023-04-02T12:30:42.450Z,98393.59
2023-04-02T12:33:19.436Z,98390.19
2023-04-02T12:35:49.281Z,98392.03
2023-04-02T12:38:25.854Z,98384.63
2023-04-02T12:40:58.572Z,98407.31
2023-04-02T12:43:35.105Z,98411.53
2023-04-02T12:46:06.149Z,98396.81
2023-04-02T12:48:35.639Z,98409.78
2023-04-02T12:51:04.543Z,98412.59
2023-04-02T12:53:41.066Z,98422.47
2023-04-02T12:56:19.093Z,98420.53
2023-04-02T12:59:01.583Z,98424.69
2023-04-02T13:01:32.036Z,98426.06
2023-04-02T13:04:04.837Z,98423.25
2023-04-02T13:06:34.709Z,98435.47
2023-04-02T13:09:06.689Z,98433.19
2023-04-02T13:11:43.684Z,98440.00
2023-04-02T13:14:19.854Z,98451.00
2023-04-02T13:16:48.420Z,98454.88
2023-04-02T13:19:28.227Z,98457.31
2023-04-02T13:21:59.782Z,98458.84
2023-04-02T13:24:32.865Z,98458.16
2023-04-02T13:27:03.025Z,98467.59
2023-04-02T13:29:33.454Z,98468.78
2023-04-02T13:32:04.273Z,98480.13
2023-04-02T13:34:32.485Z,98482.94
2023-04-02T13:37:00.830Z,98472.41
2023-04-02T13:39:30.283Z,98478.44
2023-04-02T13:42:02.449Z,98479.78
2023-04-02T13:44:33.286Z,98479.63
2023-04-02T13:47:01.249Z,98479.34
2023-04-02T13:49:30.037Z,98487.53
2023-04-02T13:52:03.053Z,98480.94
2023-04-02T13:54:35.098Z,98490.16
2023-04-02T13:57:03.135Z,98493.66
2023-04-02T13:59:31.486Z,98497.91
2023-04-02T14:02:31.279Z,98498.44
2023-04-02T14:05:36.984Z,98503.72
2023-04-02T14:08:09.053Z,98511.97
2023-04-02T14:10:54.268Z,98514.69
2023-04-02T14:13:28.145Z,98516.50
2023-04-02T14:16:01.923Z,98525.94
2023-04-02T14:18:57.375Z,98529.56
2023-04-02T14:21:46.020Z,98534.28
2023-04-02T14:24:52.329Z,98534.44
2023-04-02T14:27:40.229Z,98528.97
2023-04-02T14:30:50.031Z,98543.66
2023-04-02T14:33:56.589Z,98549.00
2023-04-02T14:36:59.698Z,98552.22
2023-04-02T14:39:42.756Z,98562.72
2023-04-02T14:42:26.208Z,98557.75
2023-04-02T14:45:05.590Z,98561.59
2023-04-02T14:47:43.274Z,98575.28
2023-04-02T14:50:21.652Z,98574.66
2023-04-02T14:52:52.514Z,98585.28
2023-04-02T14:55:37.938Z,98583.19
2023-04-02T14:58:15.835Z,98584.34
2023-04-02T15:00:56.862Z,98588.84
2023-04-02T15:04:03.963Z,98596.13
2023-04-02T15:06:46.069Z,98598.22
2023-04-02T15:09:25.739Z,98596.25
2023-04-02T15:12:00.845Z,98596.59
2023-04-02T15:14:35.684Z,98612.66
2023-04-02T15:17:03.669Z,98606.25
2023-04-02T15:19:31.555Z,98604.97
2023-04-02T15:22:22.892Z,98605.91
2023-04-02T15:24:53.574Z,98610.56
2023-04-02T15:27:39.387Z,98613.78
2023-04-02T15:30:29.301Z,98612.84
2023-04-02T15:33:23.176Z,98622.84
2023-04-02T15:36:19.287Z,98623.00
2023-04-02T15:39:17.754Z,98637.97
2023-04-02T15:42:05.160Z,98642.50
2023-04-02T15:44:34.108Z,98648.44
2023-04-02T15:47:20.788Z,98665.81
2023-04-02T15:50:02.043Z,98660.16
2023-04-02T15:52:50.130Z,98670.44
2023-04-02T15:55:33.602Z,98674.50
2023-04-02T15:58:32.713Z,98686.72
2023-04-02T16:01:38.100Z,98699.09
2023-04-02T16:04:11.958Z,98697.97
2023-04-02T16:06:55.678Z,98704.91
2023-04-02T16:09:47.926Z,98703.91
2023-04-02T16:12:19.233Z,98710.16
2023-04-02T16:14:49.618Z,98712.41
2023-04-02T16:17:31.226Z,98720.94
2023-04-02T16:20:19.984Z,98721.91
2023-04-02T16:23:00.796Z,98725.09
2023-04-02T16:25:53.630Z,98739.56
2023-04-02T16:28:23.629Z,98737.91
2023-04-02T16:31:25.401Z,98747.06
2023-04-02T16:34:14.588Z,98757.22
2023-04-02T16:37:14.501Z,98746.09
2023-04-02T16:39:53.419Z,98757.03
2023-04-02T16:42:39.666Z,98750.72
2023-04-02T16:45:27.221Z,98767.75
2023-04-02T16:48:07.030Z,98764.41
2023-04-02T16:50:49.206Z,98769.25
2023-04-02T16:54:01.931Z,98773.69
2023-04-02T16:56:33.736Z,98783.50
2023-04-02T16:59:09.649Z,98792.38
2023-04-02T17:01:58.341Z,98790.94
2023-04-02T17:04:51.362Z,98794.44
2023-04-02T17:07:19.679Z,98791.19
2023-04-02T17:09:51.680Z,98800.25
2023-04-02T17:12:22.184Z,98803.28
2023-04-02T17:14:54.739Z,98797.03
2023-04-02T17:17:22.907Z,98811.00
2023-04-02T17:19:56.888Z,98807.22
2023-04-02T17:22:24.940Z,98808.00
2023-04-02T17:25:03.808Z,98806.72
2023-04-02T17:27:36.885Z,98817.19
2023-04-02T17:30:13.546Z,98814.72
2023-04-02T17:32:41.389Z,98828.44
2023-04-02T17:35:32.265Z,98842.25
2023-04-02T17:38:04.025Z,98841.06
2023-04-02T17:40:34.816Z,98837.84
2023-04-02T17:43:21.121Z,98846.84
2023-04-02T17:45:52.929Z,98838.78
2023-04-02T17:48:45.037Z,98855.06
2023-04-02T17:51:25.726Z,98852.66
2023-04-02T17:54:30.825Z,98866.81
2023-04-02T17:57:10.541Z,98870.25
2023-04-02T17:59:59.902Z,98877.03
2023-04-02T18:02:43.364Z,98872.91
2023-04-02T18:10:31.067Z,98893.38
2023-04-02T18:13:12.759Z,98903.75
2023-04-02T18:16:02.560Z,98912.22
